Time;durP1;ratioP1;P1;durP2;ratioP2;P2;SDS_P1;SDS_P2;PMS_P1;PMS_P2;Temp;Humidity;BMP_temperature;BMP_pressure;BME280_temperature;BME280_humidity;BME280_pressure;Samples;Min_cycle;Max_cycle;Signal;HPM_P1;HPM_P2
2020/12/30 00:00:17;;;;;;;7.40;6.47;;;;;;;10.47;55.58;99533.38;1769516;79;21164;-66
2020/12/30 00:02:44;;;;;;;8.13;6.80;;;;;;;10.48;55.59;99539.52;1759999;80;21794;-65
2020/12/30 00:05:12;;;;;;;7.35;6.55;;;;;;;10.49;55.57;99546.47;1774578;79;21173;-66
2020/12/30 00:07:39;;;;;;;7.22;6.47;;;;;;;10.48;55.57;99550.95;1762061;79;21277;-66
2020/12/30 00:10:11;;;;;;;6.50;5.80;;;;;;;10.49;55.59;99554.43;1764889;80;21111;-66
2020/12/30 00:12:39;;;;;;;7.17;6.33;;;;;;;10.48;55.60;99553.61;1782344;79;21176;-65
2020/12/30 00:15:07;;;;;;;6.65;5.95;;;;;;;10.49;55.60;99562.41;1780565;79;21144;-66
2020/12/30 00:17:38;;;;;;;6.45;5.75;;;;;;;10.49;55.62;99571.22;1773864;79;21132;-64
2020/12/30 00:20:10;;;;;;;6.75;6.05;;;;;;;10.50;55.63;99567.55;1800949;79;21425;-64
2020/12/30 00:22:37;;;;;;;8.45;6.78;;;;;;;10.50;55.64;99570.20;1766660;79;21159;-65
2020/12/30 00:25:07;;;;;;;6.03;5.33;;;;;;;10.51;55.65;99563.91;1782782;79;21648;-64
2020/12/30 00:27:36;;;;;;;6.45;5.85;;;;;;;10.51;55.65;99573.71;1759889;79;21281;-65
2020/12/30 00:30:07;;;;;;;7.08;6.37;;;;;;;10.51;55.66;99565.74;1772258;79;21208;-64
2020/12/30 00:32:35;;;;;;;5.58;5.00;;;;;;;10.51;55.66;99568.39;1768187;79;21909;-66
2020/12/30 00:35:04;;;;;;;7.60;6.10;;;;;;;10.51;55.66;99564.41;1780664;79;21132;-65
2020/12/30 00:37:31;;;;;;;6.97;5.72;;;;;;;10.51;55.69;99555.94;1784545;79;21204;-64
2020/12/30 00:39:59;;;;;;;5.95;5.20;;;;;;;10.51;55.67;99550.63;1748966;80;21594;-65
2020/12/30 00:42:31;;;;;;;6.10;5.05;;;;;;;10.52;55.68;99554.10;1775905;79;21125;-65
2020/12/30 00:44:58;;;;;;;6.42;5.37;;;;;;;10.45;55.69;99545.16;1770838;79;21215;-64
2020/12/30 00:47:29;;;;;;;6.28;5.50;;;;;;;10.52;55.73;99554.92;1747211;79;21148;-65
2020/12/30 00:49:56;;;;;;;5.72;5.12;;;;;;;10.54;55.73;99559.56;1778211;79;21116;-65
2020/12/30 00:52:26;;;;;;;6.00;5.20;;;;;;;10.53;55.72;99558.42;1760995;80;21150;-65
2020/12/30 00:54:54;;;;;;;5.97;5.37;;;;;;;10.54;55.72;99557.41;1763883;79;21119;-65
2020/12/30 00:57:26;;;;;;;5.87;4.95;;;;;;;10.53;55.71;99555.27;1768952;79;21186;-64
2020/12/30 00:59:54;;;;;;;5.90;4.92;;;;;;;10.54;55.75;99550.27;1779246;79;21211;-64
2020/12/30 01:02:22;;;;;;;4.90;4.40;;;;;;;10.53;55.74;99550.46;1781618;79;21111;-65
2020/12/30 01:04:50;;;;;;;5.67;4.95;;;;;;;10.55;55.75;99555.09;1780991;79;21548;-64
2020/12/30 01:07:18;;;;;;;5.40;4.90;;;;;;;10.55;55.77;99556.42;1785470;79;21564;-65
2020/12/30 01:09:47;;;;;;;5.03;4.53;;;;;;;10.56;55.76;99560.21;1702161;81;21168;-65
2020/12/30 01:12:15;;;;;;;5.33;4.75;;;;;;;10.56;55.77;99562.05;1780086;79;21127;-66
2020/12/30 01:14:44;;;;;;;6.67;5.62;;;;;;;10.57;55.76;99559.73;1749252;80;21191;-66
2020/12/30 01:17:12;;;;;;;5.90;5.28;;;;;;;10.56;55.76;99553.58;1727554;81;21611;-66
2020/12/30 01:19:39;;;;;;;6.45;5.22;;;;;;;10.57;55.74;99559.73;1741233;80;21635;-65
2020/12/30 01:22:06;;;;;;;6.15;5.20;;;;;;;10.57;55.76;99565.05;1755958;79;21206;-64
2020/12/30 01:24:33;;;;;;;5.60;5.00;;;;;;;10.58;55.79;99574.66;1772822;79;21220;-65
2020/12/30 01:27:02;;;;;;;5.37;4.72;;;;;;;10.56;55.79;99574.83;1783961;79;21147;-65
2020/12/30 01:29:29;;;;;;;5.17;4.67;;;;;;;10.57;55.80;99574.34;1803386;79;21156;-65
2020/12/30 01:31:56;;;;;;;5.58;4.85;;;;;;;10.59;55.78;99571.02;1782037;79;21536;-66
2020/12/30 01:34:24;;;;;;;4.83;4.33;;;;;;;10.58;55.79;99571.49;1793269;79;21375;-65
2020/12/30 01:36:53;;;;;;;5.72;4.87;;;;;;;10.58;55.79;99570.67;1765168;80;21154;-65
2020/12/30 01:39:21;;;;;;;4.80;4.30;;;;;;;10.59;55.82;99573.67;1773126;79;21098;-64
2020/12/30 01:41:48;;;;;;;4.80;4.30;;;;;;;10.59;55.79;99581.13;1780115;79;21143;-65
2020/12/30 01:44:16;;;;;;;5.37;4.53;;;;;;;10.59;55.80;99585.62;1786460;79;21152;-64
2020/12/30 01:46:47;;;;;;;5.45;4.78;;;;;;;10.59;55.81;99580.31;1716792;81;21628;-64
2020/12/30 01:49:22;;;;;;;5.12;4.55;;;;;;;10.59;55.83;99578.48;1723918;81;21201;-66
2020/12/30 01:51:52;;;;;;;5.20;4.70;;;;;;;10.60;55.80;99577.97;1711078;82;21584;-65
2020/12/30 01:54:20;;;;;;;5.00;4.50;;;;;;;10.60;55.81;99571.33;1739146;80;21207;-65
2020/12/30 01:56:49;;;;;;;6.10;4.45;;;;;;;10.59;55.85;99573.16;1787532;78;21219;-65
2020/12/30 01:59:17;;;;;;;5.78;4.65;;;;;;;10.60;55.85;99567.34;1786743;79;21373;-65
2020/12/30 02:02:05;;;;;;;5.60;5.03;;;;;;;10.61;55.87;99554.41;1783821;79;21984;-66
2020/12/30 02:04:49;;;;;;;5.17;4.28;;;;;;;10.60;55.85;99549.59;1782204;79;21151;-65
2020/12/30 02:07:17;;;;;;;4.85;4.37;;;;;;;10.61;55.88;99551.75;1774292;79;21639;-64
2020/12/30 02:09:45;;;;;;;4.92;4.42;;;;;;;10.60;55.89;99562.03;1759499;80;21636;-66
2020/12/30 02:12:13;;;;;;;5.33;4.50;;;;;;;10.59;55.91;99548.44;1718909;81;21283;-65
2020/12/30 02:14:40;;;;;;;4.75;4.25;;;;;;;10.60;55.89;99550.08;1751144;80;21123;-64
2020/12/30 02:17:15;;;;;;;5.95;4.92;;;;;;;10.61;55.93;99557.88;1727728;81;21193;-65
2020/12/30 02:19:42;;;;;;;5.25;4.67;;;;;;;10.61;55.94;99557.06;1698377;82;21150;-65
2020/12/30 02:22:10;;;;;;;6.97;4.83;;;;;;;10.62;55.96;99558.22;1726699;80;21224;-65
2020/12/30 02:24:37;;;;;;;5.45;4.65;;;;;;;10.62;55.95;99553.38;1713554;80;23487;-65
2020/12/30 02:27:05;;;;;;;5.35;4.42;;;;;;;10.62;55.95;99553.38;1743571;80;21612;-64
2020/12/30 02:29:33;;;;;;;5.28;4.53;;;;;;;10.63;55.92;99562.52;1718099;81;21172;-65
2020/12/30 02:32:00;;;;;;;6.92;5.37;;;;;;;10.62;55.94;99544.94;1733156;81;21129;-65
2020/12/30 02:34:30;;;;;;;6.20;5.12;;;;;;;10.62;55.94;99545.41;1727572;82;21144;-66
2020/12/30 02:36:57;;;;;;;6.10;4.95;;;;;;;10.65;55.93;99549.58;1707052;82;21381;-64
2020/12/30 02:39:24;;;;;;;5.72;4.85;;;;;;;10.65;55.94;99543.75;1720827;82;21201;-65
2020/12/30 02:41:52;;;;;;;5.90;5.00;;;;;;;10.66;55.93;99543.24;1710904;81;21172;-64
2020/12/30 02:44:19;;;;;;;5.97;5.15;;;;;;;10.66;55.95;99549.38;1753499;80;21223;-64
2020/12/30 02:46:46;;;;;;;6.08;5.40;;;;;;;10.67;55.94;99552.37;1789504;79;21162;-64
2020/12/30 02:49:14;;;;;;;5.75;5.15;;;;;;;10.68;55.94;99553.20;1781616;79;21214;-65
2020/12/30 02:51:46;;;;;;;5.65;4.97;;;;;;;10.67;55.94;99552.37;1790722;79;21139;-67
2020/12/30 02:54:13;;;;;;;6.67;5.12;;;;;;;10.68;55.93;99555.38;1764346;79;21195;-64
2020/12/30 02:56:40;;;;;;;5.83;4.67;;;;;;;10.68;55.95;99554.05;1736505;80;21148;-65
2020/12/30 02:59:08;;;;;;;5.33;4.65;;;;;;;10.69;55.98;99552.21;1734749;82;21612;-65
2020/12/30 03:01:35;;;;;;;6.08;4.92;;;;;;;10.70;55.95;99543.22;1753396;81;21459;-66
2020/12/30 03:04:02;;;;;;;5.42;4.53;;;;;;;10.69;55.96;99537.09;1756672;80;21171;-65
2020/12/30 03:06:30;;;;;;;5.70;4.70;;;;;;;10.71;55.96;99536.92;1720190;80;21171;-66
2020/12/30 03:08:57;;;;;;;6.03;5.12;;;;;;;10.70;55.95;99524.14;1704813;81;22164;-65
2020/12/30 03:11:25;;;;;;;7.78;5.83;;;;;;;10.71;55.97;99532.94;1681588;82;21239;-64
2020/12/30 03:13:53;;;;;;;6.28;4.92;;;;;;;10.72;55.94;99527.93;1729089;82;21464;-66
2020/12/30 03:16:21;;;;;;;6.33;5.08;;;;;;;10.71;55.94;99524.45;1794529;78;21119;-65
2020/12/30 03:18:48;;;;;;;5.83;5.17;;;;;;;10.72;55.96;99526.60;1773832;79;21615;-64
2020/12/30 03:21:16;;;;;;;6.25;5.15;;;;;;;10.71;55.96;99524.45;1773098;79;21194;-65
2020/12/30 03:23:43;;;;;;;7.28;6.10;;;;;;;10.73;55.96;99527.77;1756474;79;21611;-64
2020/12/30 03:26:11;;;;;;;6.00;5.22;;;;;;;10.73;55.95;99526.44;1704312;81;21359;-65
2020/12/30 03:28:40;;;;;;;6.35;5.67;;;;;;;10.72;55.97;99520.81;1717575;82;21198;-65
2020/12/30 03:31:07;;;;;;;5.75;5.03;;;;;;;10.73;55.98;99518.97;1713520;82;21380;-66
2020/12/30 03:33:34;;;;;;;5.85;5.22;;;;;;;10.74;55.96;99516.62;1788664;79;21306;-64
2020/12/30 03:36:02;;;;;;;7.58;5.97;;;;;;;10.74;55.97;99514.82;1734919;81;21187;-64
2020/12/30 03:38:29;;;;;;;7.10;5.15;;;;;;;10.75;55.98;99511.66;1778770;79;21202;-66
2020/12/30 03:40:57;;;;;;;6.53;5.85;;;;;;;10.75;55.96;99510.33;1764078;79;21148;-64
2020/12/30 03:43:24;;;;;;;7.95;5.65;;;;;;;10.74;55.99;99513.97;1793954;79;21104;-64
2020/12/30 03:45:53;;;;;;;7.25;5.80;;;;;;;10.75;56.01;99512.47;1779655;78;21191;-65
2020/12/30 03:48:20;;;;;;;7.15;5.92;;;;;;;10.75;56.01;99515.13;1772912;79;21548;-64
2020/12/30 03:50:47;;;;;;;7.90;6.10;;;;;;;10.76;56.02;99504.84;1778676;79;21238;-66
2020/12/30 03:53:14;;;;;;;6.70;5.97;;;;;;;10.76;56.01;99508.01;1764382;78;21167;-66
2020/12/30 03:55:41;;;;;;;7.40;6.40;;;;;;;10.76;56.02;99505.35;1786499;79;21107;-65
2020/12/30 03:58:09;;;;;;;7.60;6.30;;;;;;;10.76;56.02;99501.37;1767892;79;21183;-65
2020/12/30 04:00:36;;;;;;;7.35;6.22;;;;;;;10.76;56.02;99505.35;1733112;81;21225;-66
2020/12/30 04:03:03;;;;;;;8.13;6.60;;;;;;;10.77;56.04;99502.49;1766043;79;21261;-65
2020/12/30 04:05:31;;;;;;;7.67;6.50;;;;;;;10.77;56.03;99503.00;1756981;79;21567;-65
2020/12/30 04:07:58;;;;;;;7.30;6.15;;;;;;;10.77;56.01;99510.47;1788431;79;21159;-65
2020/12/30 04:10:25;;;;;;;6.83;5.95;;;;;;;10.77;56.03;99515.78;1787691;78;21163;-64
2020/12/30 04:12:53;;;;;;;8.55;7.15;;;;;;;10.77;56.04;99511.80;1728696;82;21180;-64
2020/12/30 04:15:20;;;;;;;8.43;6.53;;;;;;;10.78;56.04;99520.61;1717811;82;21374;-65
2020/12/30 04:17:47;;;;;;;10.48;6.87;;;;;;;10.78;56.02;99525.42;1722170;82;21203;-66
2020/12/30 04:20:14;;;;;;;9.68;7.33;;;;;;;10.77;56.06;99518.95;1720902;82;21184;-66
2020/12/30 04:22:42;;;;;;;9.68;7.33;;;;;;;10.78;56.04;99518.78;1734053;82;21157;-65
2020/12/30 04:25:09;;;;;;;8.18;7.03;;;;;;;10.79;56.04;99522.25;1783276;79;21727;-65
2020/12/30 04:27:36;;;;;;;7.87;6.67;;;;;;;10.78;56.06;99525.42;1724008;81;22435;-66
2020/12/30 04:30:04;;;;;;;8.28;7.12;;;;;;;10.79;56.05;99528.90;1730809;81;21218;-66
2020/12/30 04:32:31;;;;;;;10.03;7.10;;;;;;;10.79;56.06;99528.39;1708603;82;21164;-66
2020/12/30 04:34:59;;;;;;;8.85;7.50;;;;;;;10.78;56.06;99526.75;1725755;82;21151;-65
2020/12/30 04:37:26;;;;;;;10.08;8.38;;;;;;;10.79;56.07;99529.72;1716739;81;21190;-65
2020/12/30 04:39:53;;;;;;;8.73;7.35;;;;;;;10.80;56.12;99530.56;1723851;81;21628;-65
2020/12/30 04:42:31;;;;;;;7.97;7.10;;;;;;;10.79;56.09;99523.08;1737245;81;21139;-65
2020/12/30 04:45:01;;;;;;;8.03;7.22;;;;;;;10.80;56.06;99530.56;1724077;81;21574;-66
2020/12/30 04:47:29;;;;;;;8.08;6.53;;;;;;;10.79;56.09;99527.06;1737360;82;21159;-64
2020/12/30 04:49:56;;;;;;;8.30;7.47;;;;;;;10.79;56.11;99519.09;1734731;82;21564;-64
2020/12/30 04:52:23;;;;;;;8.80;7.05;;;;;;;10.80;56.11;99526.58;1737179;82;21207;-66
2020/12/30 04:54:51;;;;;;;7.72;6.92;;;;;;;10.80;56.12;99529.23;1720744;82;21140;-66
2020/12/30 04:57:42;;;;;;;9.93;7.30;;;;;;;10.80;56.13;99528.73;1726495;82;21186;-65
2020/12/30 05:00:09;;;;;;;8.70;7.12;;;;;;;10.80;56.12;99524.74;1736622;81;21265;-64
2020/12/30 05:02:41;;;;;;;8.78;6.72;;;;;;;10.80;56.16;99527.91;1725162;82;21261;-64
2020/12/30 05:05:09;;;;;;;8.03;6.65;;;;;;;10.80;56.17;99530.05;1724626;82;22352;-64
2020/12/30 05:07:36;;;;;;;9.48;7.55;;;;;;;10.80;56.19;99530.05;1705086;83;21123;-65
2020/12/30 05:10:04;;;;;;;7.92;6.53;;;;;;;10.80;56.15;99531.39;1697183;82;21175;-65
2020/12/30 05:12:31;;;;;;;8.90;7.72;;;;;;;10.80;56.19;99526.58;1700237;82;21167;-65
2020/12/30 05:14:58;;;;;;;8.58;7.00;;;;;;;10.81;56.20;99522.39;1772042;78;21108;-65
2020/12/30 05:17:26;;;;;;;8.18;7.33;;;;;;;10.81;56.19;99519.73;1721328;80;21560;-64
2020/12/30 05:19:53;;;;;;;7.92;7.00;;;;;;;10.82;56.17;99522.73;1704849;81;21170;-65
2020/12/30 05:22:21;;;;;;;8.10;6.58;;;;;;;10.82;56.19;99521.92;1757016;80;21790;-65
2020/12/30 05:24:48;;;;;;;8.43;7.53;;;;;;;10.82;56.19;99526.72;1745266;80;22029;-66
2020/12/30 05:27:16;;;;;;;8.73;7.25;;;;;;;10.83;56.20;99531.53;1748794;80;21214;-65
2020/12/30 05:29:52;;;;;;;8.98;7.47;;;;;;;10.82;56.20;99533.37;1707797;82;22429;-64
2020/12/30 05:32:19;;;;;;;8.43;7.37;;;;;;;10.85;56.23;99535.34;1727092;82;21958;-66
2020/12/30 05:34:47;;;;;;;9.18;7.55;;;;;;;10.84;56.19;99545.16;1736877;82;22171;-66
2020/12/30 05:37:14;;;;;;;8.95;8.03;;;;;;;10.85;56.20;99547.30;1724152;82;21172;-65
2020/12/30 05:39:42;;;;;;;8.30;7.33;;;;;;;10.84;56.20;99550.47;1719366;82;21250;-65
2020/12/30 05:42:20;;;;;;;8.78;7.47;;;;;;;10.85;56.21;99550.78;1710310;82;21619;-65
2020/12/30 05:44:50;;;;;;;9.65;8.35;;;;;;;10.84;56.24;99548.33;1734460;82;21192;-64
2020/12/30 05:47:26;;;;;;;9.35;8.03;;;;;;;10.86;56.23;99551.63;1738908;81;21161;-65
2020/12/30 05:49:55;;;;;;;7.97;7.10;;;;;;;10.85;56.22;99553.44;1745786;80;21179;-66
2020/12/30 05:52:25;;;;;;;9.25;7.53;;;;;;;10.85;56.22;99548.12;1740052;80;21176;-65
2020/12/30 05:55:00;;;;;;;8.85;7.65;;;;;;;10.85;56.24;99549.45;1695251;82;21156;-65
2020/12/30 05:57:33;;;;;;;9.60;8.38;;;;;;;10.86;56.26;99556.95;1802325;78;21179;-65
2020/12/30 06:00:08;;;;;;;8.38;7.10;;;;;;;10.86;56.25;99555.62;1789266;78;21095;-65
2020/12/30 06:02:41;;;;;;;9.43;8.33;;;;;;;10.86;56.27;99556.95;1778410;79;22089;-66
2020/12/30 06:05:19;;;;;;;9.90;8.30;;;;;;;10.85;56.27;99564.58;1777883;79;21152;-65
2020/12/30 06:07:49;;;;;;;9.45;7.50;;;;;;;10.86;56.27;99566.25;1714988;82;21369;-65
2020/12/30 06:10:24;;;;;;;9.20;8.30;;;;;;;10.86;56.31;99566.25;1778856;79;21150;-65
2020/12/30 06:12:54;;;;;;;10.03;8.60;;;;;;;10.85;56.29;99560.08;1774764;79;21174;-65
2020/12/30 06:15:24;;;;;;;8.18;7.37;;;;;;;10.85;56.31;99559.27;1770772;79;21107;-65
2020/12/30 06:17:58;;;;;;;8.98;7.50;;;;;;;10.85;56.32;99559.27;1748175;80;21132;-65
2020/12/30 06:20:33;;;;;;;8.60;7.37;;;;;;;10.85;56.31;99569.38;1783009;79;21282;-65
2020/12/30 06:23:10;;;;;;;8.68;7.42;;;;;;;10.86;56.34;99577.70;1752042;80;21195;-65
2020/12/30 06:25:39;;;;;;;9.80;7.50;;;;;;;10.85;56.34;99572.04;1708032;82;21148;-66
2020/12/30 06:28:17;;;;;;;8.93;7.40;;;;;;;10.84;56.34;99574.39;1784498;78;21190;-67
2020/12/30 06:30:46;;;;;;;8.90;7.67;;;;;;;10.86;56.39;99578.20;1780476;79;21163;-65
2020/12/30 06:33:14;;;;;;;9.55;8.03;;;;;;;10.86;56.36;99579.03;1794487;79;21189;-64
2020/12/30 06:35:42;;;;;;;9.33;7.65;;;;;;;10.86;56.36;99563.59;1789051;79;21167;-65
2020/12/30 06:38:29;;;;;;;9.33;7.80;;;;;;;10.87;56.36;99567.89;1782553;79;21167;-66
2020/12/30 06:41:01;;;;;;;9.95;8.20;;;;;;;10.87;56.37;99575.86;1800548;79;21104;-65
2020/12/30 06:43:46;;;;;;;8.68;7.72;;;;;;;10.85;56.38;99568.05;1783654;79;21051;-65
2020/12/30 06:46:27;;;;;;;8.63;7.45;;;;;;;10.86;56.40;99567.58;1752249;79;21376;-67
2020/12/30 06:49:01;;;;;;;8.28;7.20;;;;;;;10.86;56.40;99566.25;1763753;79;21175;-65
2020/12/30 06:51:37;;;;;;;;;;;;;;;10.85;56.42;99565.91;1775028;80;21159;-65
2020/12/30 06:54:04;;;;;;;7.78;6.42;;;;;;;10.86;56.46;99558.27;1774082;79;20269;-65
2020/12/30 06:56:47;;;;;;;8.83;7.45;;;;;;;10.78;56.58;99557.81;1769468;79;21132;-65
2020/12/30 06:59:29;;;;;;;7.83;7.05;;;;;;;10.79;56.61;99539.53;1783736;79;21400;-64
2020/12/30 07:02:00;;;;;;;8.18;6.65;;;;;;;10.80;56.60;99536.70;1688179;83;21615;-64
2020/12/30 07:04:30;;;;;;;8.15;7.05;;;;;;;10.81;56.59;99533.02;1765074;81;21167;-65
2020/12/30 07:06:59;;;;;;;8.75;7.75;;;;;;;10.81;56.62;99535.68;1761508;79;21151;-65
2020/12/30 07:09:34;;;;;;;8.30;7.20;;;;;;;10.83;56.62;99536.84;1780764;79;21581;-65
2020/12/30 07:12:03;;;;;;;9.00;7.20;;;;;;;10.85;56.60;99540.66;1778667;79;21368;-65
2020/12/30 07:14:32;;;;;;;8.08;7.25;;;;;;;10.85;56.60;99540.16;1777793;79;21164;-65
2020/12/30 07:17:08;;;;;;;8.13;7.30;;;;;;;10.86;56.61;99535.17;1771943;79;21125;-66
2020/12/30 07:22:21;;;;;;;7.72;6.92;;;;;;;10.93;56.57;99543.27;1765873;79;28203;-66
2020/12/30 07:24:53;;;;;;;7.80;6.65;;;;;;;10.90;56.55;99544.96;1670071;83;21612;-65
2020/12/30 07:27:28;;;;;;;8.35;7.10;;;;;;;10.91;56.55;99545.27;1754915;81;21214;-65
2020/12/30 07:29:55;;;;;;;8.65;7.05;;;;;;;10.91;56.54;99550.08;1780993;80;21622;-65
2020/12/30 07:32:23;;;;;;;8.13;7.10;;;;;;;10.92;56.51;99548.27;1781041;80;21093;-64
2020/12/30 07:34:52;;;;;;;7.87;6.78;;;;;;;10.93;56.55;99550.76;1781100;80;21117;-66
2020/12/30 07:37:21;;;;;;;7.62;6.40;;;;;;;10.95;56.52;99547.90;1781114;80;21133;-65
2020/12/30 07:39:49;;;;;;;8.23;7.35;;;;;;;10.95;56.52;99550.08;1780980;80;21375;-66
2020/12/30 07:42:21;;;;;;;8.10;7.20;;;;;;;10.95;56.51;99540.78;1776750;80;21133;-66
2020/12/30 07:44:54;;;;;;;7.75;6.30;;;;;;;10.97;56.49;99545.89;1769193;81;21620;-65
2020/12/30 07:47:26;;;;;;;9.33;7.40;;;;;;;10.97;56.48;99536.11;1768478;81;21202;-64
2020/12/30 07:50:04;;;;;;;7.58;6.65;;;;;;;10.98;56.48;99545.72;1740392;79;21146;-65
2020/12/30 07:52:32;;;;;;;7.28;6.50;;;;;;;10.99;56.48;99555.84;1739765;81;21213;-66
2020/12/30 07:55:00;;;;;;;8.25;7.40;;;;;;;10.98;56.49;99553.70;1766517;81;21597;-65
2020/12/30 07:57:28;;;;;;;8.40;7.42;;;;;;;10.99;56.49;99554.04;1767633;81;21165;-70
2020/12/30 08:00:11;;;;;;;8.05;6.78;;;;;;;10.99;56.47;99546.55;1741416;81;21483;-73
2020/12/30 08:02:44;;;;;;;7.95;7.10;;;;;;;11.00;56.44;99551.69;1750295;81;21082;-65
2020/12/30 08:05:20;;;;;;;8.25;7.40;;;;;;;11.00;56.48;99543.72;1688235;82;21696;-65
2020/12/30 08:08:16;;;;;;;8.78;6.83;;;;;;;11.06;56.52;99562.12;1811340;78;28571;-70
2020/12/30 08:10:50;;;;;;;7.67;6.87;;;;;;;11.01;56.50;99565.83;1744469;80;21169;-71
2020/12/30 08:13:21;;;;;;;8.25;7.40;;;;;;;11.01;56.49;99557.34;1743874;81;21567;-65
2020/12/30 08:16:13;;;;;;;7.47;6.70;;;;;;;11.02;56.48;99555.51;1716834;80;21047;-66
2020/12/30 08:18:50;;;;;;;7.53;6.47;;;;;;;11.02;56.49;99548.86;1761288;79;21218;-69
2020/12/30 08:21:22;;;;;;;7.58;6.78;;;;;;;11.02;56.52;99551.02;1744749;80;21225;-69
2020/12/30 08:24:10;;;;;;;7.50;6.78;;;;;;;11.01;56.52;99548.05;1781149;79;21147;-69
2020/12/30 08:26:37;;;;;;;7.10;6.37;;;;;;;11.03;56.52;99543.89;1764649;80;21343;-70
2020/12/30 08:29:04;;;;;;;8.88;7.25;;;;;;;11.04;56.52;99546.86;1752202;80;21045;-70
2020/12/30 08:31:41;;;;;;;8.00;7.05;;;;;;;11.04;56.52;99543.37;1759404;80;21167;-70
2020/12/30 08:34:10;;;;;;;7.87;7.10;;;;;;;11.05;56.52;99551.66;1758726;80;21140;-70
2020/12/30 08:36:39;;;;;;;7.62;6.87;;;;;;;11.06;56.53;99549.34;1809218;79;21136;-71
2020/12/30 08:39:11;;;;;;;7.45;6.40;;;;;;;11.07;56.53;99543.00;1746058;80;21281;-69
2020/12/30 08:41:52;;;;;;;8.10;6.83;;;;;;;11.07;56.51;99544.34;1757168;80;21163;-68
2020/12/30 08:44:22;;;;;;;7.75;6.33;;;;;;;11.07;56.50;99549.17;1767452;80;21167;-65
2020/12/30 08:46:51;;;;;;;6.80;6.10;;;;;;;11.08;56.49;99548.66;1775371;79;21683;-68
2020/12/30 08:51:56;;;;;;;8.58;6.90;;;;;;;11.13;56.52;99544.98;1745526;78;28706;-65
2020/12/30 08:54:25;;;;;;;7.00;6.12;;;;;;;11.10;56.49;99542.16;1704027;80;21122;-66
2020/12/30 08:56:52;;;;;;;7.25;6.47;;;;;;;11.11;56.50;99539.02;1781123;80;21351;-65
2020/12/30 08:59:22;;;;;;;7.90;7.08;;;;;;;11.11;56.48;99537.18;1702309;83;21208;-66
2020/12/30 09:01:49;;;;;;;7.80;6.90;;;;;;;11.12;56.48;99530.02;1768755;81;21660;-65
2020/12/30 09:04:17;;;;;;;7.75;6.72;;;;;;;11.13;56.50;99527.70;1765848;81;21168;-65
2020/12/30 09:06:51;;;;;;;8.00;6.78;;;;;;;11.13;56.48;99528.52;1766285;81;21193;-68
2020/12/30 09:09:19;;;;;;;8.05;6.17;;;;;;;11.13;56.47;99524.53;1765309;81;21207;-65
2020/12/30 09:11:50;;;;;;;7.35;6.55;;;;;;;11.14;56.47;99526.17;1767306;81;21068;-68
2020/12/30 09:14:23;;;;;;;7.00;6.00;;;;;;;11.14;56.50;99520.86;1757595;81;21168;-66
2020/12/30 09:16:55;;;;;;;7.72;6.55;;;;;;;11.15;56.45;99518.54;1756457;81;21629;-66
2020/12/30 09:19:29;;;;;;;7.75;6.95;;;;;;;11.20;56.47;99514.86;1801480;77;28225;-66
2020/12/30 09:22:09;;;;;;;8.10;6.85;;;;;;;11.16;56.48;99515.38;1783115;78;21180;-71
2020/12/30 09:24:39;;;;;;;7.30;6.25;;;;;;;11.16;56.48;99517.55;1805265;78;21357;-69
2020/12/30 09:27:20;;;;;;;7.50;6.70;;;;;;;11.17;56.47;99506.41;1822206;78;21034;-66
2020/12/30 09:30:13;;;;;;;7.35;6.17;;;;;;;11.18;56.48;99508.04;1822149;78;21190;-65
2020/12/30 09:32:42;;;;;;;7.45;6.60;;;;;;;11.18;56.48;99508.89;1783766;78;21155;-69
2020/12/30 09:35:16;;;;;;;7.00;6.28;;;;;;;11.16;56.50;99501.59;1822153;78;21165;-64
2020/12/30 09:37:59;;;;;;;;;;;;;;;11.16;56.50;99498.94;1824829;78;21707;-64
2020/12/30 09:40:26;;;;;;;7.33;6.20;;;;;;;11.18;56.49;99494.75;1821258;78;20310;-66
2020/12/30 09:43:12;;;;;;;7.42;6.53;;;;;;;11.05;56.61;99480.73;1809565;78;21145;-69
2020/12/30 09:45:40;;;;;;;7.62;6.45;;;;;;;11.11;56.64;99496.48;1775264;78;21220;-69
2020/12/30 09:48:19;;;;;;;7.05;6.33;;;;;;;11.12;56.62;99496.28;1792089;78;21139;-69
2020/12/30 09:50:48;;;;;;;8.68;7.00;;;;;;;11.13;56.65;99491.81;1787750;78;21191;-66
2020/12/30 09:53:17;;;;;;;7.42;6.60;;;;;;;11.14;56.62;99488.14;1736663;81;21449;-65
2020/12/30 09:55:48;;;;;;;7.42;6.70;;;;;;;11.14;56.62;99488.14;1756050;79;21067;-66
2020/12/30 09:58:16;;;;;;;7.65;6.70;;;;;;;11.16;56.62;99478.14;1796934;78;21238;-70
2020/12/30 10:00:56;;;;;;;7.58;6.78;;;;;;;11.16;56.60;99477.67;1799163;78;21551;-70
2020/12/30 10:03:24;;;;;;;7.55;6.47;;;;;;;11.16;56.60;99477.67;1802081;78;21616;-70
2020/12/30 10:05:51;;;;;;;8.85;7.30;;;;;;;11.17;56.61;99470.00;1783261;78;21198;-69
2020/12/30 10:08:18;;;;;;;7.65;6.72;;;;;;;11.18;56.57;99466.34;1797254;78;21128;-69
2020/12/30 10:10:47;;;;;;;8.28;7.37;;;;;;;11.20;56.54;99473.64;1790592;78;21158;-70
2020/12/30 10:13:15;;;;;;;7.45;6.65;;;;;;;11.21;56.58;99473.95;1808976;77;21135;-69
2020/12/30 10:15:43;;;;;;;7.45;6.67;;;;;;;11.23;56.53;99474.29;1796579;79;22360;-69
2020/12/30 10:18:11;;;;;;;8.50;7.30;;;;;;;11.25;56.53;99478.92;1779399;79;21185;-70
2020/12/30 10:20:40;;;;;;;8.35;6.92;;;;;;;11.25;56.51;99474.94;1789125;78;21365;-66
2020/12/30 10:23:14;;;;;;;7.58;6.78;;;;;;;11.25;56.50;99457.65;1761656;80;21167;-66
2020/12/30 10:25:44;;;;;;;8.03;6.78;;;;;;;11.27;56.50;99462.28;1761714;80;21152;-66
2020/12/30 10:28:13;;;;;;;7.95;7.15;;;;;;;11.27;56.48;99455.64;1789589;78;21608;-65
2020/12/30 10:30:40;;;;;;;8.33;7.17;;;;;;;11.28;56.48;99457.27;1788766;78;21904;-65
2020/12/30 10:33:10;;;;;;;8.05;7.05;;;;;;;11.28;56.47;99460.78;1785988;78;21197;-65
2020/12/30 10:35:37;;;;;;;9.55;6.90;;;;;;;11.29;56.48;99460.27;1788975;78;21166;-65
2020/12/30 10:38:04;;;;;;;8.05;7.20;;;;;;;11.29;56.46;99456.28;1788977;78;21127;-66
2020/12/30 10:40:32;;;;;;;8.33;7.08;;;;;;;11.30;56.46;99455.26;1788983;78;22388;-65
2020/12/30 10:43:03;;;;;;;8.63;7.83;;;;;;;11.31;56.47;99448.44;1788967;78;21127;-66
2020/12/30 10:45:30;;;;;;;8.35;7.45;;;;;;;11.31;56.45;99447.62;1789069;78;21103;-65
2020/12/30 10:47:58;;;;;;;9.50;7.83;;;;;;;11.31;56.45;99444.96;1789034;78;21135;-65
2020/12/30 10:50:25;;;;;;;8.10;7.25;;;;;;;11.32;56.46;99450.11;1786792;78;21552;-65
2020/12/30 10:52:52;;;;;;;8.60;7.70;;;;;;;11.32;56.45;99442.13;1789085;78;21270;-64
2020/12/30 10:55:20;;;;;;;8.98;7.75;;;;;;;11.33;56.46;99440.28;1789034;78;21088;-66
2020/12/30 10:57:48;;;;;;;8.33;7.45;;;;;;;11.33;56.46;99442.95;1788893;78;21208;-67
2020/12/30 11:00:15;;;;;;;9.23;7.30;;;;;;;11.33;56.45;99439.77;1789097;78;21155;-67
2020/12/30 11:04:54;;;;;;;8.43;7.30;;;;;;;11.38;56.47;99432.60;1814440;78;28764;-65
2020/12/30 11:07:22;;;;;;;8.38;7.35;;;;;;;11.28;56.54;99427.55;1795314;79;21150;-66
2020/12/30 11:09:50;;;;;;;8.93;8.03;;;;;;;11.30;56.53;99428.19;1805095;79;22434;-65
2020/12/30 11:12:19;;;;;;;8.43;7.15;;;;;;;11.32;56.54;99426.66;1776005;79;21154;-65
2020/12/30 11:14:47;;;;;;;9.15;7.75;;;;;;;11.32;56.52;99429.31;1742432;81;21734;-65
2020/12/30 11:17:15;;;;;;;8.33;7.40;;;;;;;11.32;56.53;99426.66;1736967;81;21193;-65
2020/12/30 11:19:42;;;;;;;8.58;7.67;;;;;;;11.34;56.53;99415.36;1731610;81;21225;-66
2020/12/30 11:22:09;;;;;;;9.83;7.97;;;;;;;11.33;56.52;99401.72;1733988;81;21221;-66
2020/12/30 11:24:38;;;;;;;9.30;7.70;;;;;;;11.33;56.54;99411.85;1740855;80;21226;-65
2020/12/30 11:27:05;;;;;;;8.58;7.30;;;;;;;11.34;56.55;99408.20;1766745;81;21162;-67
2020/12/30 11:29:33;;;;;;;10.23;8.93;;;;;;;11.35;56.55;99405.84;1751833;81;21123;-66
2020/12/30 11:32:00;;;;;;;8.48;7.58;;;;;;;11.34;56.55;99404.21;1755650;81;21136;-69
2020/12/30 11:34:27;;;;;;;9.75;8.45;;;;;;;11.35;56.56;99401.04;1736029;81;21376;-66
2020/12/30 11:36:54;;;;;;;8.55;7.22;;;;;;;11.35;56.52;99409.84;1742411;82;21160;-65
2020/12/30 11:39:22;;;;;;;9.33;8.03;;;;;;;11.35;56.52;99407.17;1793680;79;21166;-66
2020/12/30 11:41:50;;;;;;;9.55;7.55;;;;;;;11.36;56.56;99390.23;1777505;79;21168;-66
2020/12/30 11:44:18;;;;;;;8.38;7.28;;;;;;;11.36;56.55;99394.73;1786057;79;21147;-66
2020/12/30 11:46:51;;;;;;;8.93;8.03;;;;;;;11.36;56.55;99390.73;1775849;79;21642;-66
2020/12/30 11:49:19;;;;;;;9.55;8.55;;;;;;;11.36;56.56;99388.08;1747149;79;21150;-66
2020/12/30 11:51:47;;;;;;;9.15;7.58;;;;;;;11.36;56.55;99392.89;1811581;79;21175;-66
2020/12/30 11:54:14;;;;;;;9.08;7.78;;;;;;;11.36;56.58;99382.76;1742394;81;21112;-65